sensor_id;sensor_type;location;lat;lon;timestamp;temperature;humidity
68912;SHT31;55953;51.650;-0.522;2023-04-03T00:01:24;3.17;79.05
68912;SHT31;55953;51.650;-0.522;2023-04-03T00:03:52;3.21;78.81
68912;SHT31;55953;51.650;-0.522;2023-04-03T00:06:20;3.15;78.86
68912;SHT31;55953;51.650;-0.522;2023-04-03T00:08:49;3.14;79.04
68912;SHT31;55953;51.650;-0.522;2023-04-03T00:11:17;3.07;79.13
68912;SHT31;55953;51.650;-0.522;2023-04-03T00:13:46;3.05;79.17
68912;SHT31;55953;51.650;-0.522;2023-04-03T00:16:14;3.00;79.12
68912;SHT31;55953;51.650;-0.522;2023-04-03T00:18:43;2.97;79.13
68912;SHT31;55953;51.650;-0.522;2023-04-03T00:21:12;2.98;79.24
68912;SHT31;55953;51.650;-0.522;2023-04-03T00:23:42;2.98;79.20
68912;SHT31;55953;51.650;-0.522;2023-04-03T00:26:10;2.94;79.29
68912;SHT31;55953;51.650;-0.522;2023-04-03T00:28:41;2.89;79.35
68912;SHT31;55953;51.650;-0.522;2023-04-03T00:31:09;2.86;79.41
68912;SHT31;55953;51.650;-0.522;2023-04-03T00:33:39;2.81;79.56
68912;SHT31;55953;51.650;-0.522;2023-04-03T00:36:08;2.77;79.59
68912;SHT31;55953;51.650;-0.522;2023-04-03T00:38:38;2.82;79.67
68912;SHT31;55953;51.650;-0.522;2023-04-03T00:41:07;2.82;79.71
68912;SHT31;55953;51.650;-0.522;2023-04-03T00:43:36;2.83;79.61
68912;SHT31;55953;51.650;-0.522;2023-04-03T00:46:05;2.81;79.66
68912;SHT31;55953;51.650;-0.522;2023-04-03T00:48:38;2.75;79.92
68912;SHT31;55953;51.650;-0.522;2023-04-03T00:51:17;2.73;79.97
68912;SHT31;55953;51.650;-0.522;2023-04-03T00:53:58;2.72;79.86
68912;SHT31;55953;51.650;-0.522;2023-04-03T00:56:33;2.68;79.85
68912;SHT31;55953;51.650;-0.522;2023-04-03T00:59:11;2.59;80.03
68912;SHT31;55953;51.650;-0.522;2023-04-03T01:01:54;2.54;80.34
68912;SHT31;55953;51.650;-0.522;2023-04-03T01:07:09;2.52;80.40
68912;SHT31;55953;51.650;-0.522;2023-04-03T01:09:42;2.51;80.44
68912;SHT31;55953;51.650;-0.522;2023-04-03T01:12:20;2.50;80.39
68912;SHT31;55953;51.650;-0.522;2023-04-03T01:14:54;2.47;80.49
68912;SHT31;55953;51.650;-0.522;2023-04-03T01:25:42;2.40;80.95
68912;SHT31;55953;51.650;-0.522;2023-04-03T01:28:13;2.38;80.86
68912;SHT31;55953;51.650;-0.522;2023-04-03T01:33:50;2.42;80.86
68912;SHT31;55953;51.650;-0.522;2023-04-03T01:36:20;2.45;80.88
68912;SHT31;55953;51.650;-0.522;2023-04-03T01:38:54;2.50;81.02
68912;SHT31;55953;51.650;-0.522;2023-04-03T01:41:24;2.52;81.31
68912;SHT31;55953;51.650;-0.522;2023-04-03T01:43:55;2.59;81.03
68912;SHT31;55953;51.650;-0.522;2023-04-03T01:46:23;2.60;81.06
68912;SHT31;55953;51.650;-0.522;2023-04-03T01:48:51;2.58;81.29
68912;SHT31;55953;51.650;-0.522;2023-04-03T01:51:19;2.58;81.01
68912;SHT31;55953;51.650;-0.522;2023-04-03T01:53:47;2.61;81.03
68912;SHT31;55953;51.650;-0.522;2023-04-03T01:56:15;2.62;80.95
68912;SHT31;55953;51.650;-0.522;2023-04-03T01:58:43;2.62;81.07
68912;SHT31;55953;51.650;-0.522;2023-04-03T02:01:12;2.61;81.21
68912;SHT31;55953;51.650;-0.522;2023-04-03T02:03:40;2.60;81.10
68912;SHT31;55953;51.650;-0.522;2023-04-03T02:06:08;2.59;81.04
68912;SHT31;55953;51.650;-0.522;2023-04-03T02:08:39;2.56;81.05
68912;SHT31;55953;51.650;-0.522;2023-04-03T02:11:07;2.53;80.99
68912;SHT31;55953;51.650;-0.522;2023-04-03T02:13:35;2.51;81.21
68912;SHT31;55953;51.650;-0.522;2023-04-03T02:16:08;2.49;81.36
68912;SHT31;55953;51.650;-0.522;2023-04-03T02:18:38;2.54;81.29
68912;SHT31;55953;51.650;-0.522;2023-04-03T02:21:06;2.56;81.45
68912;SHT31;55953;51.650;-0.522;2023-04-03T02:23:34;2.57;81.40
68912;SHT31;55953;51.650;-0.522;2023-04-03T02:26:08;2.63;81.13
68912;SHT31;55953;51.650;-0.522;2023-04-03T02:28:42;2.69;81.22
68912;SHT31;55953;51.650;-0.522;2023-04-03T02:31:10;2.77;81.19
68912;SHT31;55953;51.650;-0.522;2023-04-03T02:33:39;2.84;80.92
68912;SHT31;55953;51.650;-0.522;2023-04-03T02:36:08;2.88;80.85
68912;SHT31;55953;51.650;-0.522;2023-04-03T02:38:37;2.88;80.77
68912;SHT31;55953;51.650;-0.522;2023-04-03T02:41:07;2.91;80.81
68912;SHT31;55953;51.650;-0.522;2023-04-03T02:43:37;2.94;80.82
68912;SHT31;55953;51.650;-0.522;2023-04-03T02:46:06;2.95;80.76
68912;SHT31;55953;51.650;-0.522;2023-04-03T02:48:35;2.97;80.70
68912;SHT31;55953;51.650;-0.522;2023-04-03T02:51:04;2.95;80.61
68912;SHT31;55953;51.650;-0.522;2023-04-03T02:53:32;2.98;80.62
68912;SHT31;55953;51.650;-0.522;2023-04-03T02:56:05;2.97;80.70
68912;SHT31;55953;51.650;-0.522;2023-04-03T02:58:33;2.98;80.76
68912;SHT31;55953;51.650;-0.522;2023-04-03T03:01:01;3.00;80.65
68912;SHT31;55953;51.650;-0.522;2023-04-03T03:03:30;3.02;80.56
68912;SHT31;55953;51.650;-0.522;2023-04-03T03:06:04;3.00;80.59
68912;SHT31;55953;51.650;-0.522;2023-04-03T03:08:40;3.01;80.61
68912;SHT31;55953;51.650;-0.522;2023-04-03T03:11:09;3.02;80.54
68912;SHT31;55953;51.650;-0.522;2023-04-03T03:13:38;2.98;80.49
68912;SHT31;55953;51.650;-0.522;2023-04-03T03:16:06;2.95;80.56
68912;SHT31;55953;51.650;-0.522;2023-04-03T03:18:35;2.89;80.75
68912;SHT31;55953;51.650;-0.522;2023-04-03T03:21:03;2.85;80.76
68912;SHT31;55953;51.650;-0.522;2023-04-03T03:23:32;2.80;80.79
68912;SHT31;55953;51.650;-0.522;2023-04-03T03:26:01;2.78;80.88
68912;SHT31;55953;51.650;-0.522;2023-04-03T03:28:34;2.78;80.79
68912;SHT31;55953;51.650;-0.522;2023-04-03T03:31:05;2.74;80.81
68912;SHT31;55953;51.650;-0.522;2023-04-03T03:33:34;2.70;80.91
68912;SHT31;55953;51.650;-0.522;2023-04-03T03:36:02;2.68;80.93
68912;SHT31;55953;51.650;-0.522;2023-04-03T03:38:30;2.63;81.05
68912;SHT31;55953;51.650;-0.522;2023-04-03T03:40:59;2.62;81.09
68912;SHT31;55953;51.650;-0.522;2023-04-03T03:43:27;2.59;80.96
68912;SHT31;55953;51.650;-0.522;2023-04-03T03:45:56;2.54;81.16
68912;SHT31;55953;51.650;-0.522;2023-04-03T03:48:24;2.54;81.17
68912;SHT31;55953;51.650;-0.522;2023-04-03T03:50:52;2.50;81.09
68912;SHT31;55953;51.650;-0.522;2023-04-03T03:53:23;2.44;81.28
68912;SHT31;55953;51.650;-0.522;2023-04-03T03:55:53;2.46;81.30
68912;SHT31;55953;51.650;-0.522;2023-04-03T03:58:22;2.35;81.34
68912;SHT31;55953;51.650;-0.522;2023-04-03T04:00:50;2.30;81.63
68912;SHT31;55953;51.650;-0.522;2023-04-03T04:03:18;2.27;81.56
68912;SHT31;55953;51.650;-0.522;2023-04-03T04:05:48;2.16;81.62
68912;SHT31;55953;51.650;-0.522;2023-04-03T04:08:16;2.10;81.79
68912;SHT31;55953;51.650;-0.522;2023-04-03T04:10:45;2.08;81.90
68912;SHT31;55953;51.650;-0.522;2023-04-03T04:13:15;2.07;81.87
68912;SHT31;55953;51.650;-0.522;2023-04-03T04:15:44;2.04;81.98
68912;SHT31;55953;51.650;-0.522;2023-04-03T04:18:13;2.02;82.07
68912;SHT31;55953;51.650;-0.522;2023-04-03T04:20:42;1.99;82.14
68912;SHT31;55953;51.650;-0.522;2023-04-03T04:23:13;1.96;82.08
68912;SHT31;55953;51.650;-0.522;2023-04-03T04:25:44;1.97;82.13
68912;SHT31;55953;51.650;-0.522;2023-04-03T04:28:16;1.93;82.24
68912;SHT31;55953;51.650;-0.522;2023-04-03T04:30:44;1.89;82.28
68912;SHT31;55953;51.650;-0.522;2023-04-03T04:33:13;1.89;82.36
68912;SHT31;55953;51.650;-0.522;2023-04-03T04:35:42;1.86;82.38
68912;SHT31;55953;51.650;-0.522;2023-04-03T04:38:11;1.82;82.48
68912;SHT31;55953;51.650;-0.522;2023-04-03T04:40:39;1.80;82.55
68912;SHT31;55953;51.650;-0.522;2023-04-03T04:43:08;1.83;82.62
68912;SHT31;55953;51.650;-0.522;2023-04-03T04:45:38;1.87;82.52
68912;SHT31;55953;51.650;-0.522;2023-04-03T04:48:07;1.88;82.50
68912;SHT31;55953;51.650;-0.522;2023-04-03T04:50:35;1.84;82.53
68912;SHT31;55953;51.650;-0.522;2023-04-03T04:53:03;1.87;82.55
68912;SHT31;55953;51.650;-0.522;2023-04-03T04:55:31;1.84;82.46
68912;SHT31;55953;51.650;-0.522;2023-04-03T04:57:59;1.75;82.50
68912;SHT31;55953;51.650;-0.522;2023-04-03T05:00:27;1.70;82.75
68912;SHT31;55953;51.650;-0.522;2023-04-03T05:02:56;1.70;82.75
68912;SHT31;55953;51.650;-0.522;2023-04-03T05:05:24;1.67;82.74
68912;SHT31;55953;51.650;-0.522;2023-04-03T05:07:53;1.66;82.74
68912;SHT31;55953;51.650;-0.522;2023-04-03T05:10:21;1.64;82.64
68912;SHT31;55953;51.650;-0.522;2023-04-03T05:12:49;1.63;82.68
68912;SHT31;55953;51.650;-0.522;2023-04-03T05:15:17;1.65;82.76
68912;SHT31;55953;51.650;-0.522;2023-04-03T05:17:46;1.63;82.72
68912;SHT31;55953;51.650;-0.522;2023-04-03T05:20:15;1.57;82.82
68912;SHT31;55953;51.650;-0.522;2023-04-03T05:22:45;1.61;82.84
68912;SHT31;55953;51.650;-0.522;2023-04-03T05:25:13;1.58;82.65
68912;SHT31;55953;51.650;-0.522;2023-04-03T05:27:43;1.54;82.76
68912;SHT31;55953;51.650;-0.522;2023-04-03T05:30:12;1.57;82.95
68912;SHT31;55953;51.650;-0.522;2023-04-03T05:32:41;1.61;82.97
68912;SHT31;55953;51.650;-0.522;2023-04-03T05:35:23;1.65;83.01
68912;SHT31;55953;51.650;-0.522;2023-04-03T05:37:53;1.64;82.76
68912;SHT31;55953;51.650;-0.522;2023-04-03T05:40:21;1.60;82.95
68912;SHT31;55953;51.650;-0.522;2023-04-03T05:42:51;1.60;83.02
68912;SHT31;55953;51.650;-0.522;2023-04-03T05:45:22;1.63;83.12
68912;SHT31;55953;51.650;-0.522;2023-04-03T05:47:50;1.71;83.19
68912;SHT31;55953;51.650;-0.522;2023-04-03T05:50:19;1.78;82.98
68912;SHT31;55953;51.650;-0.522;2023-04-03T05:52:50;1.79;82.97
68912;SHT31;55953;51.650;-0.522;2023-04-03T05:55:25;1.82;82.99
68912;SHT31;55953;51.650;-0.522;2023-04-03T05:57:53;1.88;83.08
68912;SHT31;55953;51.650;-0.522;2023-04-03T06:00:22;1.97;83.06
68912;SHT31;55953;51.650;-0.522;2023-04-03T06:02:56;2.07;82.94
68912;SHT31;55953;51.650;-0.522;2023-04-03T06:05:24;2.12;82.93
68912;SHT31;55953;51.650;-0.522;2023-04-03T06:07:52;2.18;82.92
68912;SHT31;55953;51.650;-0.522;2023-04-03T06:10:21;2.26;82.92
68912;SHT31;55953;51.650;-0.522;2023-04-03T06:12:50;2.36;82.82
68912;SHT31;55953;51.650;-0.522;2023-04-03T06:15:18;2.43;82.77
68912;SHT31;55953;51.650;-0.522;2023-04-03T06:17:47;2.57;82.61
68912;SHT31;55953;51.650;-0.522;2023-04-03T06:20:16;2.64;82.39
68912;SHT31;55953;51.650;-0.522;2023-04-03T06:22:44;2.72;82.48
68912;SHT31;55953;51.650;-0.522;2023-04-03T06:25:13;2.85;82.43
68912;SHT31;55953;51.650;-0.522;2023-04-03T06:27:41;2.98;82.26
68912;SHT31;55953;51.650;-0.522;2023-04-03T06:30:09;3.09;82.04
68912;SHT31;55953;51.650;-0.522;2023-04-03T06:32:38;3.22;81.70
68912;SHT31;55953;51.650;-0.522;2023-04-03T06:35:06;3.24;81.28
68912;SHT31;55953;51.650;-0.522;2023-04-03T06:37:35;3.31;81.47
68912;SHT31;55953;51.650;-0.522;2023-04-03T06:40:04;3.42;81.39
68912;SHT31;55953;51.650;-0.522;2023-04-03T06:42:33;3.50;81.26
68912;SHT31;55953;51.650;-0.522;2023-04-03T06:45:07;3.63;81.17
68912;SHT31;55953;51.650;-0.522;2023-04-03T06:47:36;3.79;80.91
68912;SHT31;55953;51.650;-0.522;2023-04-03T06:50:05;3.90;80.61
68912;SHT31;55953;51.650;-0.522;2023-04-03T06:52:33;4.05;80.44
68912;SHT31;55953;51.650;-0.522;2023-04-03T06:55:02;4.15;79.98
68912;SHT31;55953;51.650;-0.522;2023-04-03T06:57:30;4.25;79.88
68912;SHT31;55953;51.650;-0.522;2023-04-03T06:59:59;4.35;79.73
68912;SHT31;55953;51.650;-0.522;2023-04-03T07:02:27;4.45;79.36
68912;SHT31;55953;51.650;-0.522;2023-04-03T07:04:55;4.58;79.49
68912;SHT31;55953;51.650;-0.522;2023-04-03T07:07:23;4.69;79.37
68912;SHT31;55953;51.650;-0.522;2023-04-03T07:09:51;4.78;79.04
68912;SHT31;55953;51.650;-0.522;2023-04-03T07:12:20;4.81;78.51
68912;SHT31;55953;51.650;-0.522;2023-04-03T07:14:48;4.92;78.78
68912;SHT31;55953;51.650;-0.522;2023-04-03T07:17:16;5.03;78.47
68912;SHT31;55953;51.650;-0.522;2023-04-03T07:19:45;5.09;78.73
68912;SHT31;55953;51.650;-0.522;2023-04-03T07:22:12;5.28;78.78
68912;SHT31;55953;51.650;-0.522;2023-04-03T07:24:40;5.42;78.36
68912;SHT31;55953;51.650;-0.522;2023-04-03T07:27:08;5.59;78.37
68912;SHT31;55953;51.650;-0.522;2023-04-03T07:29:40;5.81;78.03
68912;SHT31;55953;51.650;-0.522;2023-04-03T07:32:07;5.91;77.81
68912;SHT31;55953;51.650;-0.522;2023-04-03T07:34:35;6.07;77.62
68912;SHT31;55953;51.650;-0.522;2023-04-03T07:37:04;6.20;77.19
68912;SHT31;55953;51.650;-0.522;2023-04-03T07:39:32;6.38;77.03
68912;SHT31;55953;51.650;-0.522;2023-04-03T07:42:01;6.48;76.36
68912;SHT31;55953;51.650;-0.522;2023-04-03T07:44:29;6.51;75.82
68912;SHT31;55953;51.650;-0.522;2023-04-03T07:46:58;6.48;74.97
68912;SHT31;55953;51.650;-0.522;2023-04-03T07:49:27;6.49;75.75
68912;SHT31;55953;51.650;-0.522;2023-04-03T07:51:56;6.58;76.22
68912;SHT31;55953;51.650;-0.522;2023-04-03T07:54:23;6.69;76.02
68912;SHT31;55953;51.650;-0.522;2023-04-03T07:56:52;6.82;75.96
68912;SHT31;55953;51.650;-0.522;2023-04-03T07:59:20;6.97;76.02
68912;SHT31;55953;51.650;-0.522;2023-04-03T08:01:48;7.13;75.36
68912;SHT31;55953;51.650;-0.522;2023-04-03T08:04:16;7.14;74.96
68912;SHT31;55953;51.650;-0.522;2023-04-03T08:06:44;7.16;75.18
68912;SHT31;55953;51.650;-0.522;2023-04-03T08:09:14;7.25;75.21
68912;SHT31;55953;51.650;-0.522;2023-04-03T08:11:43;7.34;74.92
68912;SHT31;55953;51.650;-0.522;2023-04-03T08:14:12;7.47;75.19
68912;SHT31;55953;51.650;-0.522;2023-04-03T08:16:45;7.59;74.65
68912;SHT31;55953;51.650;-0.522;2023-04-03T08:19:15;7.59;73.59
68912;SHT31;55953;51.650;-0.522;2023-04-03T08:21:53;7.77;74.71
68912;SHT31;55953;51.650;-0.522;2023-04-03T08:24:22;7.93;74.15
68912;SHT31;55953;51.650;-0.522;2023-04-03T08:26:50;8.03;73.51
68912;SHT31;55953;51.650;-0.522;2023-04-03T08:29:18;8.13;73.37
68912;SHT31;55953;51.650;-0.522;2023-04-03T08:31:46;8.23;73.10
68912;SHT31;55953;51.650;-0.522;2023-04-03T08:34:15;8.31;71.89
68912;SHT31;55953;51.650;-0.522;2023-04-03T08:36:43;8.32;72.74
68912;SHT31;55953;51.650;-0.522;2023-04-03T08:39:11;8.37;71.56
68912;SHT31;55953;51.650;-0.522;2023-04-03T08:44:15;8.46;71.86
68912;SHT31;55953;51.650;-0.522;2023-04-03T08:49:59;8.58;70.67
68912;SHT31;55953;51.650;-0.522;2023-04-03T08:52:34;8.64;70.92
68912;SHT31;55953;51.650;-0.522;2023-04-03T08:55:20;8.77;71.62
68912;SHT31;55953;51.650;-0.522;2023-04-03T09:00:50;9.23;70.36
68912;SHT31;55953;51.650;-0.522;2023-04-03T09:03:24;9.51;69.50
68912;SHT31;55953;51.650;-0.522;2023-04-03T09:08:57;9.80;68.81
68912;SHT31;55953;51.650;-0.522;2023-04-03T09:23:59;10.26;65.97
68912;SHT31;55953;51.650;-0.522;2023-04-03T09:27:14;10.31;67.09
68912;SHT31;55953;51.650;-0.522;2023-04-03T09:29:27;10.59;66.89
68912;SHT31;55953;51.650;-0.522;2023-04-03T09:31:56;10.91;66.96
68912;SHT31;55953;51.650;-0.522;2023-04-03T09:34:47;10.99;64.34
68912;SHT31;55953;51.650;-0.522;2023-04-03T09:37:38;11.04;64.75
68912;SHT31;55953;51.650;-0.522;2023-04-03T09:42:57;10.85;64.17
68912;SHT31;55953;51.650;-0.522;2023-04-03T09:45:30;11.00;64.41
68912;SHT31;55953;51.650;-0.522;2023-04-03T09:58:45;11.10;63.94
68912;SHT31;55953;51.650;-0.522;2023-04-03T10:01:37;10.98;62.85
68912;SHT31;55953;51.650;-0.522;2023-04-03T10:06:50;10.98;63.86
68912;SHT31;55953;51.650;-0.522;2023-04-03T10:09:26;11.04;63.98
68912;SHT31;55953;51.650;-0.522;2023-04-03T10:11:59;11.17;63.82
68912;SHT31;55953;51.650;-0.522;2023-04-03T10:14:34;11.30;63.70
68912;SHT31;55953;51.650;-0.522;2023-04-03T10:18:13;11.40;63.21
68912;SHT31;55953;51.650;-0.522;2023-04-03T10:20:26;11.42;62.19
68912;SHT31;55953;51.650;-0.522;2023-04-03T10:23:31;11.44;61.55
68912;SHT31;55953;51.650;-0.522;2023-04-03T10:29:08;11.57;61.19
68912;SHT31;55953;51.650;-0.522;2023-04-03T10:35:21;11.73;60.80
68912;SHT31;55953;51.650;-0.522;2023-04-03T10:40:58;12.06;60.41
68912;SHT31;55953;51.650;-0.522;2023-04-03T10:53:01;12.35;58.72
68912;SHT31;55953;51.650;-0.522;2023-04-03T10:58:31;12.28;58.93
68912;SHT31;55953;51.650;-0.522;2023-04-03T11:01:08;12.32;58.49
68912;SHT31;55953;51.650;-0.522;2023-04-03T11:03:45;12.49;58.54
68912;SHT31;55953;51.650;-0.522;2023-04-03T11:06:21;12.73;57.13
68912;SHT31;55953;51.650;-0.522;2023-04-03T11:09:01;12.69;55.61
68912;SHT31;55953;51.650;-0.522;2023-04-03T11:12:03;12.64;54.88
68912;SHT31;55953;51.650;-0.522;2023-04-03T11:14:57;12.59;55.90
68912;SHT31;55953;51.650;-0.522;2023-04-03T11:17:27;12.73;56.15
68912;SHT31;55953;51.650;-0.522;2023-04-03T11:20:10;12.76;54.98
68912;SHT31;55953;51.650;-0.522;2023-04-03T11:23:02;12.70;54.97
68912;SHT31;55953;51.650;-0.522;2023-04-03T11:25:38;12.80;55.39
68912;SHT31;55953;51.650;-0.522;2023-04-03T11:28:12;12.81;54.80
68912;SHT31;55953;51.650;-0.522;2023-04-03T11:36:45;12.91;55.18
68912;SHT31;55953;51.650;-0.522;2023-04-03T11:39:28;13.01;54.82
68912;SHT31;55953;51.650;-0.522;2023-04-03T11:48:01;13.17;53.31
68912;SHT31;55953;51.650;-0.522;2023-04-03T11:50:51;13.31;53.90
68912;SHT31;55953;51.650;-0.522;2023-04-03T11:53:28;13.48;53.57
68912;SHT31;55953;51.650;-0.522;2023-04-03T12:01:47;13.75;51.70
68912;SHT31;55953;51.650;-0.522;2023-04-03T12:04:24;13.52;51.82
68912;SHT31;55953;51.650;-0.522;2023-04-03T12:07:02;13.38;52.78
68912;SHT31;55953;51.650;-0.522;2023-04-03T12:15:11;13.67;51.06
68912;SHT31;55953;51.650;-0.522;2023-04-03T12:44:15;13.34;51.86
68912;SHT31;55953;51.650;-0.522;2023-04-03T12:46:59;13.56;52.96
68912;SHT31;55953;51.650;-0.522;2023-04-03T12:49:45;13.71;52.02
68912;SHT31;55953;51.650;-0.522;2023-04-03T12:52:27;13.59;51.74
68912;SHT31;55953;51.650;-0.522;2023-04-03T12:55:07;13.28;52.07
68912;SHT31;55953;51.650;-0.522;2023-04-03T12:57:42;13.24;52.96
68912;SHT31;55953;51.650;-0.522;2023-04-03T13:03:03;13.52;51.86
68912;SHT31;55953;51.650;-0.522;2023-04-03T13:05:34;13.60;52.20
68912;SHT31;55953;51.650;-0.522;2023-04-03T13:08:05;13.72;51.79
68912;SHT31;55953;51.650;-0.522;2023-04-03T13:13:30;13.88;50.97
68912;SHT31;55953;51.650;-0.522;2023-04-03T13:15:58;13.91;50.39
68912;SHT31;55953;51.650;-0.522;2023-04-03T13:21:02;13.87;49.99
68912;SHT31;55953;51.650;-0.522;2023-04-03T13:23:34;13.78;49.29
68912;SHT31;55953;51.650;-0.522;2023-04-03T13:26:05;13.70;49.98
68912;SHT31;55953;51.650;-0.522;2023-04-03T13:28:36;13.69;49.71
68912;SHT31;55953;51.650;-0.522;2023-04-03T13:31:08;13.72;50.06
68912;SHT31;55953;51.650;-0.522;2023-04-03T13:33:56;13.74;49.39
68912;SHT31;55953;51.650;-0.522;2023-04-03T13:36:31;13.79;50.00
68912;SHT31;55953;51.650;-0.522;2023-04-03T13:41:41;13.92;49.96
68912;SHT31;55953;51.650;-0.522;2023-04-03T13:46:53;13.97;47.98
68912;SHT31;55953;51.650;-0.522;2023-04-03T13:49:45;14.01;48.23
68912;SHT31;55953;51.650;-0.522;2023-04-03T13:52:38;14.02;48.00
68912;SHT31;55953;51.650;-0.522;2023-04-03T14:00:58;14.02;47.60
68912;SHT31;55953;51.650;-0.522;2023-04-03T14:03:55;14.07;47.01
68912;SHT31;55953;51.650;-0.522;2023-04-03T14:06:26;14.01;46.62
68912;SHT31;55953;51.650;-0.522;2023-04-03T14:08:56;13.97;46.07
68912;SHT31;55953;51.650;-0.522;2023-04-03T14:11:24;13.96;47.05
68912;SHT31;55953;51.650;-0.522;2023-04-03T14:14:00;14.01;47.75
68912;SHT31;55953;51.650;-0.522;2023-04-03T14:16:36;14.12;47.07
68912;SHT31;55953;51.650;-0.522;2023-04-03T14:19:14;14.14;47.44
68912;SHT31;55953;51.650;-0.522;2023-04-03T14:21:51;14.19;46.82
68912;SHT31;55953;51.650;-0.522;2023-04-03T14:24:21;14.18;46.63
68912;SHT31;55953;51.650;-0.522;2023-04-03T14:26:51;14.15;47.27
68912;SHT31;55953;51.650;-0.522;2023-04-03T14:29:22;14.21;48.39
68912;SHT31;55953;51.650;-0.522;2023-04-03T14:31:50;14.31;47.41
68912;SHT31;55953;51.650;-0.522;2023-04-03T14:34:38;14.28;46.48
68912;SHT31;55953;51.650;-0.522;2023-04-03T14:37:09;14.26;45.31
68912;SHT31;55953;51.650;-0.522;2023-04-03T14:39:46;14.18;46.02
68912;SHT31;55953;51.650;-0.522;2023-04-03T14:42:16;14.20;46.92
68912;SHT31;55953;51.650;-0.522;2023-04-03T14:45:05;14.30;47.00
68912;SHT31;55953;51.650;-0.522;2023-04-03T14:47:44;14.35;47.03
68912;SHT31;55953;51.650;-0.522;2023-04-03T14:50:18;14.35;46.35
68912;SHT31;55953;51.650;-0.522;2023-04-03T14:52:51;14.31;46.25
68912;SHT31;55953;51.650;-0.522;2023-04-03T14:55:26;14.35;46.95
68912;SHT31;55953;51.650;-0.522;2023-04-03T14:57:55;14.34;46.15
68912;SHT31;55953;51.650;-0.522;2023-04-03T15:00:23;14.34;47.16
68912;SHT31;55953;51.650;-0.522;2023-04-03T15:02:51;14.32;47.15
68912;SHT31;55953;51.650;-0.522;2023-04-03T15:05:20;14.26;46.73
68912;SHT31;55953;51.650;-0.522;2023-04-03T15:07:49;14.25;46.87
68912;SHT31;55953;51.650;-0.522;2023-04-03T15:10:24;14.26;47.01
68912;SHT31;55953;51.650;-0.522;2023-04-03T15:12:56;14.23;46.61
68912;SHT31;55953;51.650;-0.522;2023-04-03T15:15:27;14.21;47.67
68912;SHT31;55953;51.650;-0.522;2023-04-03T15:17:56;14.16;46.94
68912;SHT31;55953;51.650;-0.522;2023-04-03T15:20:26;14.17;47.71
68912;SHT31;55953;51.650;-0.522;2023-04-03T15:23:00;14.15;46.59
68912;SHT31;55953;51.650;-0.522;2023-04-03T15:25:28;14.11;47.05
68912;SHT31;55953;51.650;-0.522;2023-04-03T15:27:57;14.06;46.81
68912;SHT31;55953;51.650;-0.522;2023-04-03T15:30:25;14.11;47.09
68912;SHT31;55953;51.650;-0.522;2023-04-03T15:32:53;14.15;46.17
68912;SHT31;55953;51.650;-0.522;2023-04-03T15:35:21;14.14;46.09
68912;SHT31;55953;51.650;-0.522;2023-04-03T15:37:49;14.05;45.99
68912;SHT31;55953;51.650;-0.522;2023-04-03T15:40:18;14.02;46.85
68912;SHT31;55953;51.650;-0.522;2023-04-03T15:42:46;14.06;47.62
68912;SHT31;55953;51.650;-0.522;2023-04-03T15:45:14;14.14;47.40
68912;SHT31;55953;51.650;-0.522;2023-04-03T15:47:42;14.12;46.81
68912;SHT31;55953;51.650;-0.522;2023-04-03T15:50:10;14.06;46.73
68912;SHT31;55953;51.650;-0.522;2023-04-03T15:52:38;13.93;46.62
68912;SHT31;55953;51.650;-0.522;2023-04-03T15:55:07;13.89;47.29
68912;SHT31;55953;51.650;-0.522;2023-04-03T15:57:35;13.81;47.21
68912;SHT31;55953;51.650;-0.522;2023-04-03T16:00:08;13.58;47.20
68912;SHT31;55953;51.650;-0.522;2023-04-03T16:02:37;13.52;47.03
68912;SHT31;55953;51.650;-0.522;2023-04-03T16:05:05;13.52;46.59
68912;SHT31;55953;51.650;-0.522;2023-04-03T16:07:40;13.52;47.10
68912;SHT31;55953;51.650;-0.522;2023-04-03T16:10:09;13.52;47.23
68912;SHT31;55953;51.650;-0.522;2023-04-03T16:12:38;13.50;47.90
68912;SHT31;55953;51.650;-0.522;2023-04-03T16:15:06;13.46;47.71
68912;SHT31;55953;51.650;-0.522;2023-04-03T16:17:35;13.42;47.88
68912;SHT31;55953;51.650;-0.522;2023-04-03T16:20:05;13.39;47.90
68912;SHT31;55953;51.650;-0.522;2023-04-03T16:22:35;13.36;47.99
68912;SHT31;55953;51.650;-0.522;2023-04-03T16:25:05;13.38;48.07
68912;SHT31;55953;51.650;-0.522;2023-04-03T16:27:35;13.32;47.44
68912;SHT31;55953;51.650;-0.522;2023-04-03T16:30:04;13.22;47.10
68912;SHT31;55953;51.650;-0.522;2023-04-03T16:32:33;13.10;47.78
68912;SHT31;55953;51.650;-0.522;2023-04-03T16:35:02;13.08;48.12
68912;SHT31;55953;51.650;-0.522;2023-04-03T16:37:30;13.02;48.08
68912;SHT31;55953;51.650;-0.522;2023-04-03T16:39:59;12.98;47.90
68912;SHT31;55953;51.650;-0.522;2023-04-03T16:42:27;12.93;47.41
68912;SHT31;55953;51.650;-0.522;2023-04-03T16:44:55;12.81;46.90
68912;SHT31;55953;51.650;-0.522;2023-04-03T16:47:23;12.70;47.83
68912;SHT31;55953;51.650;-0.522;2023-04-03T16:49:50;12.65;46.85
68912;SHT31;55953;51.650;-0.522;2023-04-03T16:52:18;12.56;46.92
68912;SHT31;55953;51.650;-0.522;2023-04-03T16:54:46;12.53;47.30
68912;SHT31;55953;51.650;-0.522;2023-04-03T16:57:14;12.52;47.10
68912;SHT31;55953;51.650;-0.522;2023-04-03T16:59:42;12.49;47.70
68912;SHT31;55953;51.650;-0.522;2023-04-03T17:02:10;12.44;46.61
68912;SHT31;55953;51.650;-0.522;2023-04-03T17:04:38;12.36;47.01
68912;SHT31;55953;51.650;-0.522;2023-04-03T17:07:06;12.30;46.79
68912;SHT31;55953;51.650;-0.522;2023-04-03T17:09:34;12.22;46.92
68912;SHT31;55953;51.650;-0.522;2023-04-03T17:12:02;12.14;47.29
68912;SHT31;55953;51.650;-0.522;2023-04-03T17:14:31;12.11;47.72
68912;SHT31;55953;51.650;-0.522;2023-04-03T17:16:59;12.02;47.34
68912;SHT31;55953;51.650;-0.522;2023-04-03T17:19:27;11.94;47.38
68912;SHT31;55953;51.650;-0.522;2023-04-03T17:21:58;11.88;47.86
68912;SHT31;55953;51.650;-0.522;2023-04-03T17:24:26;11.85;48.00
68912;SHT31;55953;51.650;-0.522;2023-04-03T17:26:55;11.81;48.25
68912;SHT31;55953;51.650;-0.522;2023-04-03T17:29:23;11.77;48.14
68912;SHT31;55953;51.650;-0.522;2023-04-03T17:31:50;11.69;48.12
68912;SHT31;55953;51.650;-0.522;2023-04-03T17:34:18;11.54;47.38
68912;SHT31;55953;51.650;-0.522;2023-04-03T17:36:47;11.41;47.64
68912;SHT31;55953;51.650;-0.522;2023-04-03T17:39:15;11.30;48.22
68912;SHT31;55953;51.650;-0.522;2023-04-03T17:41:43;11.19;48.15
68912;SHT31;55953;51.650;-0.522;2023-04-03T17:44:12;11.04;48.85
68912;SHT31;55953;51.650;-0.522;2023-04-03T17:46:40;10.95;49.68
68912;SHT31;55953;51.650;-0.522;2023-04-03T17:49:09;10.86;48.84
68912;SHT31;55953;51.650;-0.522;2023-04-03T17:51:41;10.72;49.53
68912;SHT31;55953;51.650;-0.522;2023-04-03T17:54:09;10.61;49.93
68912;SHT31;55953;51.650;-0.522;2023-04-03T17:56:37;10.47;47.26
68912;SHT31;55953;51.650;-0.522;2023-04-03T17:59:05;10.28;46.96
68912;SHT31;55953;51.650;-0.522;2023-04-03T18:01:33;10.11;45.97
68912;SHT31;55953;51.650;-0.522;2023-04-03T18:04:05;9.99;45.57
68912;SHT31;55953;51.650;-0.522;2023-04-03T18:06:37;9.86;44.67
68912;SHT31;55953;51.650;-0.522;2023-04-03T18:09:20;9.74;44.23
68912;SHT31;55953;51.650;-0.522;2023-04-03T18:11:53;9.58;45.27
68912;SHT31;55953;51.650;-0.522;2023-04-03T18:14:24;9.45;46.36
68912;SHT31;55953;51.650;-0.522;2023-04-03T18:16:54;9.30;46.17